Time,TemperatureF,DewpointF,PressureIn,WindDirection,WindDirectionDegrees,WindSpeedMPH,WindSpeedGustMPH,Humidity,HourlyPrecipIn,Conditions,Clouds,dailyrainin,SoftwareType,DateUTC
2013-01-31 00:00:00,52.0,50.6,29.31,NNE,19,0.0,0.0,95,0.07,,,0.54,VWS V14.01,2013-01-31 05:00:00,
2013-01-31 00:01:00,52.0,50.6,29.31,NNE,19,0.0,0.0,95,0.05,,,0.00,VWS V14.01,2013-01-31 05:01:00,
2013-01-31 00:06:00,52.0,50.6,29.31,NNE,20,5.0,5.0,95,0.06,,,0.01,VWS V14.01,2013-01-31 05:06:00,
2013-01-31 00:11:00,51.6,50.2,29.31,NE,43,0.0,5.0,95,0.08,,,0.03,VWS V14.01,2013-01-31 05:11:00,
2013-01-31 00:15:00,51.7,50.6,29.29,NE,45,1.0,5.0,96,0.09,,,0.05,VWS V14.01,2013-01-31 05:15:00,
2013-01-31 00:16:00,51.9,50.8,29.29,NE,44,0.0,0.0,96,0.07,,,0.04,VWS V14.01,2013-01-31 05:16:00,
2013-01-31 00:21:00,52.2,51.1,29.29,West,260,4.0,5.0,96,0.09,,,0.06,VWS V14.01,2013-01-31 05:21:00,
2013-01-31 00:26:00,52.8,51.7,29.29,WSW,249,4.0,8.0,96,0.11,,,0.08,VWS V14.01,2013-01-31 05:26:00,
2013-01-31 00:30:00,53.1,52.0,29.28,WSW,248,3.0,8.0,96,0.13,,,0.11,VWS V14.01,2013-01-31 05:30:00,
2013-01-31 00:31:00,53.1,52.0,29.28,West,275,2.0,2.0,96,0.12,,,0.10,VWS V14.01,2013-01-31 05:31:00,
2013-01-31 00:36:00,53.1,52.0,29.28,WSW,245,1.0,5.0,96,0.13,,,0.11,VWS V14.01,2013-01-31 05:36:00,
2013-01-31 00:41:00,53.2,52.1,29.28,SW,219,7.0,10.0,96,0.14,,,0.12,VWS V14.01,2013-01-31 05:41:00,
2013-01-31 00:45:00,54.2,53.4,29.25,SSW,202,2.0,10.0,97,0.16,,,0.15,VWS V14.01,2013-01-31 05:45:00,
2013-01-31 00:46:00,54.1,53.3,29.25,ENE,62,7.0,7.0,97,0.15,,,0.14,VWS V14.01,2013-01-31 05:46:00,
2013-01-31 00:51:00,53.8,52.7,29.25,ENE,73,5.0,7.0,96,0.16,,,0.15,VWS V14.01,2013-01-31 05:51:00,
2013-01-31 00:56:00,53.9,52.8,29.25,NNE,21,5.0,12.0,96,0.16,,,0.15,VWS V14.01,2013-01-31 05:56:00,
2013-01-31 01:00:00,54.8,54.0,29.22,ENE,68,4.0,15.0,97,0.19,,,0.19,VWS V14.01,2013-01-31 06:00:00,
2013-01-31 01:01:00,54.8,54.0,29.22,NNE,23,7.0,10.0,97,0.18,,,0.18,VWS V14.01,2013-01-31 06:01:00,
2013-01-31 01:06:00,55.4,54.6,29.22,NE,47,12.0,24.0,97,0.19,,,0.19,VWS V14.01,2013-01-31 06:06:00,
2013-01-31 01:11:00,55.7,54.9,29.22,North,5,13.0,24.0,97,0.20,,,0.20,VWS V14.01,2013-01-31 06:11:00,
2013-01-31 01:15:00,56.0,55.2,29.16,NE,45,10.0,24.0,97,0.20,,,0.21,VWS V14.01,2013-01-31 06:15:00,
2013-01-31 01:16:00,56.0,55.2,29.16,NE,43,10.0,12.0,97,0.16,,,0.20,VWS V14.01,2013-01-31 06:16:00,
2013-01-31 01:21:00,56.3,55.5,29.16,NE,55,10.0,19.0,97,0.17,,,0.21,VWS V14.01,2013-01-31 06:21:00,
2013-01-31 01:26:00,56.8,56.0,29.16,NNE,20,7.0,19.0,97,0.17,,,0.21,VWS V14.01,2013-01-31 06:26:00,
2013-01-31 01:30:00,57.2,56.4,29.12,NE,45,10.0,19.0,97,0.17,,,0.22,VWS V14.01,2013-01-31 06:30:00,
2013-01-31 01:31:00,57.2,56.4,29.12,NE,37,6.0,15.0,97,0.11,,,0.21,VWS V14.01,2013-01-31 06:31:00,
2013-01-31 01:36:00,57.6,56.8,29.12,NNE,15,1.0,15.0,97,0.11,,,0.21,VWS V14.01,2013-01-31 06:36:00,
2013-01-31 01:41:00,58.1,57.3,29.12,WNW,284,18.0,18.0,97,0.11,,,0.21,VWS V14.01,2013-01-31 06:41:00,
2013-01-31 01:45:00,58.9,58.0,29.08,NE,45,8.0,18.0,97,0.11,,,0.22,VWS V14.01,2013-01-31 06:45:00,
2013-01-31 01:46:00,58.9,58.0,29.08,North,5,14.0,14.0,97,0.07,,,0.21,VWS V14.01,2013-01-31 06:46:00,
2013-01-31 01:51:00,59.5,58.7,29.08,SE,134,10.0,21.0,97,0.07,,,0.21,VWS V14.01,2013-01-31 06:51:00,
2013-01-31 01:56:00,60.1,59.0,29.08,West,276,21.0,30.0,96,0.08,,,0.22,VWS V14.01,2013-01-31 06:56:00,
2013-01-31 02:00:00,60.4,59.0,29.09,West,270,12.0,30.0,95,0.11,,,0.25,VWS V14.01,2013-01-31 07:00:00,
2013-01-31 02:01:00,60.2,58.8,29.08,NNW,340,6.0,30.0,95,0.08,,,0.22,VWS V14.01,2013-01-31 07:01:00,
2013-01-31 02:08:00,60.2,58.8,29.08,NNW,340,6.0,30.0,95,0.08,,,0.22,VWS V14.01,2013-01-31 07:08:00,
2013-01-31 02:15:00,59.9,57.3,29.09,West,270,11.0,31.0,91,0.36,,,0.54,VWS V14.01,2013-01-31 07:15:00,
2013-01-31 02:28:00,58.4,56.4,29.09,WSW,257,7.0,12.0,93,0.11,,,0.48,VWS V14.01,2013-01-31 07:28:00,
2013-01-31 02:30:00,58.1,56.1,29.10,West,270,8.0,18.0,93,0.56,,,0.76,VWS V14.01,2013-01-31 07:30:00,
2013-01-31 02:33:00,58.4,56.4,29.09,WSW,257,7.0,12.0,93,0.11,,,0.48,VWS V14.01,2013-01-31 07:33:00,
2013-01-31 02:45:00,56.9,55.2,29.08,WSW,248,3.0,9.0,94,0.65,,,0.86,VWS V14.01,2013-01-31 07:45:00,
2013-01-31 02:47:00,59.9,57.3,29.09,West,270,11.0,31.0,91,0.36,,,0.54,VWS V14.01,2013-01-31 07:47:00,
2013-01-31 02:52:00,59.9,57.3,29.09,West,270,11.0,31.0,91,0.36,,,0.54,VWS V14.01,2013-01-31 07:52:00,
2013-01-31 03:00:00,56.5,54.8,29.06,West,270,0.0,5.0,94,0.81,,,1.02,VWS V14.01,2013-01-31 08:00:00,
2013-01-31 03:05:00,58.1,56.1,29.10,West,270,8.0,18.0,93,0.56,,,0.76,VWS V14.01,2013-01-31 08:05:00,
2013-01-31 03:15:00,55.7,54.3,29.10,West,270,5.0,14.0,95,1.01,,,1.26,VWS V14.01,2013-01-31 08:15:00,
2013-01-31 03:18:00,56.9,55.2,29.08,WSW,248,3.0,9.0,94,0.65,,,0.86,VWS V14.01,2013-01-31 08:18:00,
2013-01-31 03:23:00,56.9,55.2,29.08,WSW,248,3.0,9.0,94,0.65,,,0.86,VWS V14.01,2013-01-31 08:23:00,
2013-01-31 03:28:00,56.0,54.9,29.10,SW,223,9.0,9.0,96,0.65,,,0.96,VWS V14.01,2013-01-31 08:28:00,
2013-01-31 03:30:00,56.5,55.4,29.11,WSW,248,5.0,11.0,96,0.53,,,1.07,VWS V14.01,2013-01-31 08:30:00,
2013-01-31 03:41:00,55.7,54.3,29.10,West,270,5.0,14.0,95,1.01,,,1.26,VWS V14.01,2013-01-31 08:41:00,
2013-01-31 03:45:00,56.8,55.7,29.12,WSW,248,6.0,16.0,96,0.34,,,1.10,VWS V14.01,2013-01-31 08:45:00,
2013-01-31 03:46:00,56.6,55.5,29.11,SW,234,4.0,5.0,96,1.01,,,1.00,VWS V14.01,2013-01-31 08:46:00,
2013-01-31 03:51:00,56.6,55.5,29.11,SW,234,4.0,5.0,96,1.01,,,1.00,VWS V14.01,2013-01-31 08:51:00,
2013-01-31 04:00:00,57.3,55.9,29.10,West,270,8.0,22.0,95,0.45,,,1.06,VWS V14.01,2013-01-31 09:00:00,
2013-01-31 04:07:00,56.8,55.7,29.12,WSW,248,6.0,16.0,96,0.34,,,1.10,VWS V14.01,2013-01-31 09:07:00,
2013-01-31 04:12:00,57.3,55.6,29.10,SW,219,8.0,19.0,94,0.23,,,1.09,VWS V14.01,2013-01-31 09:12:00,
2013-01-31 04:15:00,57.3,55.6,29.11,WSW,248,7.0,22.0,94,0.44,,,1.11,VWS V14.01,2013-01-31 09:15:00,
2013-01-31 04:17:00,57.2,55.5,29.11,SW,230,11.0,13.0,94,0.00,,,1.10,VWS V14.01,2013-01-31 09:17:00,
2013-01-31 04:22:00,57.2,55.2,29.11,West,273,0.0,14.0,93,0.00,,,1.13,VWS V14.01,2013-01-31 09:22:00,
2013-01-31 04:27:00,57.1,55.1,29.11,NNW,337,6.0,14.0,93,0.00,,,1.14,VWS V14.01,2013-01-31 09:27:00,
2013-01-31 04:30:00,56.9,54.9,29.07,WSW,248,6.0,18.0,93,0.25,,,1.16,VWS V14.01,2013-01-31 09:30:00,
2013-01-31 04:32:00,56.9,54.6,29.07,West,264,12.0,12.0,92,0.08,,,1.15,VWS V14.01,2013-01-31 09:32:00,
2013-01-31 04:37:00,56.9,54.6,29.07,SSW,200,8.0,14.0,92,0.08,,,1.15,VWS V14.01,2013-01-31 09:37:00,
2013-01-31 04:42:00,56.9,54.3,29.07,WSW,247,12.0,14.0,91,0.08,,,1.15,VWS V14.01,2013-01-31 09:42:00,
2013-01-31 04:45:00,56.9,54.3,29.03,SW,225,7.0,14.0,91,0.18,,,1.16,VWS V14.01,2013-01-31 09:45:00,
2013-01-31 04:47:00,57.1,54.2,29.03,WSW,245,11.0,16.0,90,0.05,,,1.15,VWS V14.01,2013-01-31 09:47:00,
2013-01-31 04:52:00,57.2,54.0,29.03,SW,225,11.0,16.0,89,0.05,,,1.15,VWS V14.01,2013-01-31 09:52:00,
2013-01-31 04:57:00,57.3,53.5,29.03,SW,231,7.0,16.0,87,0.05,,,1.15,VWS V14.01,2013-01-31 09:57:00,
2013-01-31 05:00:00,57.3,53.2,29.04,WSW,248,9.0,19.0,86,0.15,,,1.16,VWS V14.01,2013-01-31 10:00:00,
2013-01-31 05:02:00,57.3,53.2,29.04,SSW,209,1.0,20.0,86,0.05,,,1.15,VWS V14.01,2013-01-31 10:02:00,
2013-01-31 05:07:00,57.3,52.8,29.04,SSW,192,8.0,20.0,85,0.05,,,1.15,VWS V14.01,2013-01-31 10:07:00,
2013-01-31 05:12:00,57.3,52.5,29.04,West,273,12.0,20.0,84,0.05,,,1.15,VWS V14.01,2013-01-31 10:12:00,
2013-01-31 05:15:00,57.5,52.7,29.04,WSW,248,11.0,22.0,84,0.10,,,1.16,VWS V14.01,2013-01-31 10:15:00,
2013-01-31 05:17:00,57.5,52.7,29.04,WSW,254,12.0,21.0,84,0.05,,,1.15,VWS V14.01,2013-01-31 10:17:00,
2013-01-31 05:22:00,57.3,52.8,29.04,WSW,250,16.0,21.0,85,0.05,,,1.15,VWS V14.01,2013-01-31 10:22:00,
2013-01-31 05:27:00,57.1,52.6,29.04,West,278,14.0,23.0,85,0.05,,,1.15,VWS V14.01,2013-01-31 10:27:00,
2013-01-31 05:30:00,57.1,52.6,29.05,West,270,12.0,25.0,85,0.05,,,1.16,VWS V14.01,2013-01-31 10:30:00,
2013-01-31 05:32:00,56.9,52.4,29.05,WNW,292,8.0,16.0,85,0.01,,,1.16,VWS V14.01,2013-01-31 10:32:00,
2013-01-31 05:37:00,56.2,52.1,29.05,SW,234,20.0,23.0,86,0.05,,,1.20,VWS V14.01,2013-01-31 10:37:00,
2013-01-31 05:42:00,55.0,51.2,29.05,SSW,198,12.0,23.0,87,0.07,,,1.22,VWS V14.01,2013-01-31 10:42:00,
2013-01-31 05:45:00,53.9,49.8,29.09,West,270,14.0,35.0,86,0.08,,,1.24,VWS V14.01,2013-01-31 10:45:00,
2013-01-31 05:47:00,53.2,48.2,29.09,WNW,288,21.0,29.0,83,0.08,,,1.23,VWS V14.01,2013-01-31 10:47:00,
2013-01-31 05:52:00,51.7,45.7,29.09,West,265,21.0,29.0,80,0.08,,,1.23,VWS V14.01,2013-01-31 10:52:00,
2013-01-31 05:57:00,50.5,44.9,29.09,West,267,9.0,29.0,81,0.09,,,1.24,VWS V14.01,2013-01-31 10:57:00,
2013-01-31 06:00:00,49.8,42.5,29.12,West,270,17.0,37.0,76,0.09,,,1.25,VWS V14.01,2013-01-31 11:00:00,
2013-01-31 06:02:00,49.5,42.3,29.12,WSW,252,10.0,23.0,76,0.09,,,1.24,VWS V14.01,2013-01-31 11:02:00,
2013-01-31 06:07:00,48.9,41.0,29.12,NNW,337,7.0,28.0,74,0.09,,,1.24,VWS V14.01,2013-01-31 11:07:00,
2013-01-31 06:12:00,48.5,40.6,29.12,WNW,292,9.0,28.0,74,0.09,,,1.24,VWS V14.01,2013-01-31 11:12:00,
2013-01-31 06:15:00,48.0,40.1,29.15,West,270,14.0,29.0,74,0.09,,,1.25,VWS V14.01,2013-01-31 11:15:00,
2013-01-31 06:17:00,47.9,39.7,29.15,SW,222,12.0,22.0,73,0.09,,,1.24,VWS V14.01,2013-01-31 11:17:00,
2013-01-31 06:22:00,47.6,39.4,29.15,West,261,9.0,22.0,73,0.09,,,1.24,VWS V14.01,2013-01-31 11:22:00,
2013-01-31 06:27:00,47.4,39.2,29.15,West,259,13.0,22.0,73,0.09,,,1.24,VWS V14.01,2013-01-31 11:27:00,
2013-01-31 06:30:00,47.3,39.1,29.18,West,270,10.0,24.0,73,0.09,,,1.25,VWS V14.01,2013-01-31 11:30:00,
2013-01-31 06:32:00,47.1,38.9,29.18,WSW,240,11.0,13.0,73,0.09,,,1.24,VWS V14.01,2013-01-31 11:32:00,
2013-01-31 06:37:00,46.8,37.9,29.18,West,268,10.0,15.0,71,0.09,,,1.24,VWS V14.01,2013-01-31 11:37:00,
2013-01-31 06:42:00,46.7,36.3,29.18,West,260,14.0,26.0,67,0.09,,,1.24,VWS V14.01,2013-01-31 11:42:00,
2013-01-31 06:45:00,46.6,35.5,29.20,West,270,12.0,33.0,65,0.09,,,1.25,VWS V14.01,2013-01-31 11:45:00,
2013-01-31 06:47:00,46.6,35.1,29.20,WSW,248,12.0,26.0,64,0.01,,,1.24,VWS V14.01,2013-01-31 11:47:00,
2013-01-31 06:52:00,46.3,34.0,29.20,WSW,253,19.0,28.0,62,0.01,,,1.24,VWS V14.01,2013-01-31 11:52:00,
2013-01-31 06:57:00,46.0,33.3,29.20,West,279,16.0,30.0,61,0.01,,,1.24,VWS V14.01,2013-01-31 11:57:00,
2013-01-31 07:00:00,45.7,32.6,29.21,West,270,16.0,38.0,60,0.01,,,1.25,VWS V14.01,2013-01-31 12:00:00,
2013-01-31 07:02:00,45.5,32.4,29.21,WSW,255,11.0,21.0,60,0.00,,,1.24,VWS V14.01,2013-01-31 12:02:00,
2013-01-31 07:07:00,45.1,30.8,29.21,West,266,18.0,30.0,57,0.00,,,1.24,VWS V14.01,2013-01-31 12:07:00,
2013-01-31 07:12:00,44.9,31.5,29.21,WSW,252,13.0,30.0,59,0.00,,,1.24,VWS V14.01,2013-01-31 12:12:00,
2013-01-31 07:15:00,44.7,31.7,29.23,West,270,16.0,36.0,60,0.00,,,1.25,VWS V14.01,2013-01-31 12:15:00,
2013-01-31 07:17:00,44.5,31.9,29.23,West,267,10.0,15.0,61,0.00,,,1.24,VWS V14.01,2013-01-31 12:17:00,
2013-01-31 07:22:00,44.4,31.8,29.23,WSW,257,13.0,20.0,61,0.00,,,1.24,VWS V14.01,2013-01-31 12:22:00,
2013-01-31 07:27:00,44.4,31.4,29.23,West,270,19.0,27.0,60,0.00,,,1.24,VWS V14.01,2013-01-31 12:27:00,
2013-01-31 07:30:00,44.2,31.2,29.23,West,270,13.0,28.0,60,0.00,,,1.25,VWS V14.01,2013-01-31 12:30:00,
2013-01-31 07:32:00,44.1,31.5,29.23,West,273,15.0,21.0,61,0.00,,,1.24,VWS V14.01,2013-01-31 12:32:00,
2013-01-31 07:37:00,43.9,29.7,29.23,West,271,19.0,33.0,57,0.00,,,1.24,VWS V14.01,2013-01-31 12:37:00,
2013-01-31 07:42:00,43.8,30.8,29.23,North,350,13.0,33.0,60,0.00,,,1.24,VWS V14.01,2013-01-31 12:42:00,
2013-01-31 07:45:00,43.7,31.1,29.25,West,270,15.0,33.0,61,0.00,,,1.25,VWS V14.01,2013-01-31 12:45:00,
2013-01-31 07:47:00,43.7,31.1,29.25,WSW,250,19.0,19.0,61,0.00,,,1.24,VWS V14.01,2013-01-31 12:47:00,
2013-01-31 07:52:00,43.5,31.0,29.25,WSW,253,7.0,20.0,61,0.00,,,1.24,VWS V14.01,2013-01-31 12:52:00,
2013-01-31 07:57:00,43.2,29.4,29.25,WSW,246,19.0,34.0,58,0.00,,,1.24,VWS V14.01,2013-01-31 12:57:00,
2013-01-31 08:00:00,43.1,29.3,29.27,West,270,16.0,38.0,58,0.00,,,1.25,VWS V14.01,2013-01-31 13:00:00,
2013-01-31 08:02:00,42.9,29.6,29.27,West,273,13.0,24.0,59,0.00,,,1.24,VWS V14.01,2013-01-31 13:02:00,
2013-01-31 08:07:00,42.5,28.4,29.27,WSW,246,30.0,36.0,57,0.00,,,1.24,VWS V14.01,2013-01-31 13:07:00,
2013-01-31 08:12:00,42.2,28.5,29.27,NW,306,20.0,36.0,58,0.00,,,1.24,VWS V14.01,2013-01-31 13:12:00,
2013-01-31 08:15:00,41.8,27.7,29.29,West,270,17.0,38.0,57,0.00,,,1.25,VWS V14.01,2013-01-31 13:15:00,
2013-01-31 08:17:00,41.7,27.2,29.29,West,281,26.0,33.0,56,0.00,,,1.24,VWS V14.01,2013-01-31 13:17:00,
2013-01-31 08:22:00,41.5,26.5,29.29,WNW,295,16.0,33.0,55,0.00,,,1.24,VWS V14.01,2013-01-31 13:22:00,
2013-01-31 08:27:00,41.2,26.7,29.29,SW,234,21.0,33.0,56,0.00,,,1.24,VWS V14.01,2013-01-31 13:27:00,
2013-01-31 08:30:00,41.1,26.6,29.31,West,270,18.0,34.0,56,0.00,,,1.25,VWS V14.01,2013-01-31 13:30:00,
2013-01-31 08:32:00,41.1,26.6,29.31,West,266,19.0,23.0,56,0.00,,,1.24,VWS V14.01,2013-01-31 13:32:00,
2013-01-31 08:37:00,40.9,26.9,29.31,West,264,12.0,25.0,57,0.00,,,1.24,VWS V14.01,2013-01-31 13:37:00,
2013-01-31 08:42:00,40.9,26.9,29.31,WSW,240,15.0,25.0,57,0.00,,,1.24,VWS V14.01,2013-01-31 13:42:00,
2013-01-31 08:45:00,40.9,26.4,29.33,West,270,13.0,25.0,56,0.00,,,1.25,VWS V14.01,2013-01-31 13:45:00,
2013-01-31 08:47:00,40.9,26.4,29.33,SW,236,10.0,16.0,56,0.00,,,1.24,VWS V14.01,2013-01-31 13:47:00,
2013-01-31 08:52:00,40.9,25.5,29.33,WSW,257,18.0,31.0,54,0.00,,,1.24,VWS V14.01,2013-01-31 13:52:00,
2013-01-31 08:57:00,40.9,26.0,29.33,West,275,26.0,31.0,55,0.00,,,1.24,VWS V14.01,2013-01-31 13:57:00,
2013-01-31 09:00:00,40.9,26.4,29.34,West,270,15.0,33.0,56,0.00,,,1.25,VWS V14.01,2013-01-31 14:00:00,
2013-01-31 09:02:00,40.9,26.0,29.34,West,276,19.0,21.0,55,0.00,,,1.24,VWS V14.01,2013-01-31 14:02:00,
2013-01-31 09:07:00,40.9,26.4,29.34,West,269,13.0,26.0,56,0.00,,,1.24,VWS V14.01,2013-01-31 14:07:00,
2013-01-31 09:12:00,40.8,25.9,29.34,WSW,251,12.0,26.0,55,0.00,,,1.24,VWS V14.01,2013-01-31 14:12:00,
2013-01-31 09:15:00,40.7,24.5,29.36,West,270,14.0,32.0,52,0.00,,,1.25,VWS V14.01,2013-01-31 14:15:00,
2013-01-31 09:17:00,40.7,24.5,29.36,West,273,10.0,25.0,52,0.00,,,1.24,VWS V14.01,2013-01-31 14:17:00,
2013-01-31 09:22:00,40.7,24.5,29.36,NW,326,7.0,25.0,52,0.00,,,1.24,VWS V14.01,2013-01-31 14:22:00,
2013-01-31 09:27:00,40.8,24.1,29.36,WNW,283,10.0,35.0,51,0.00,,,1.24,VWS V14.01,2013-01-31 14:27:00,
2013-01-31 09:30:00,40.8,24.5,29.36,West,270,14.0,35.0,52,0.00,,,1.25,VWS V14.01,2013-01-31 14:30:00,
2013-01-31 09:32:00,40.8,24.1,29.36,West,261,13.0,27.0,51,0.00,,,1.24,VWS V14.01,2013-01-31 14:32:00,
2013-01-31 09:37:00,40.9,24.2,29.36,WSW,244,22.0,39.0,51,0.00,,,1.24,VWS V14.01,2013-01-31 14:37:00,
2013-01-31 09:42:00,40.5,23.8,29.36,West,275,21.0,39.0,51,0.00,,,1.24,VWS V14.01,2013-01-31 14:42:00,
2013-01-31 09:45:00,40.4,23.7,29.38,West,270,19.0,39.0,51,0.00,,,1.25,VWS V14.01,2013-01-31 14:45:00,
2013-01-31 09:47:00,40.4,24.2,29.38,West,269,20.0,21.0,52,0.00,,,1.24,VWS V14.01,2013-01-31 14:47:00,
2013-01-31 09:52:00,40.7,24.5,29.38,NNW,332,11.0,28.0,52,0.00,,,1.24,VWS V14.01,2013-01-31 14:52:00,
2013-01-31 09:57:00,40.4,23.7,29.38,WSW,240,21.0,38.0,51,0.00,,,1.24,VWS V14.01,2013-01-31 14:57:00,
2013-01-31 10:00:00,40.2,23.1,29.39,West,270,18.0,38.0,50,0.00,,,1.25,VWS V14.01,2013-01-31 15:00:00,
2013-01-31 10:02:00,40.2,23.1,29.39,WSW,254,15.0,30.0,50,0.00,,,1.24,VWS V14.01,2013-01-31 15:02:00,
2013-01-31 10:07:00,40.1,22.0,29.39,West,259,28.0,32.0,48,0.00,,,1.24,VWS V14.01,2013-01-31 15:07:00,
2013-01-31 10:12:00,40.1,22.0,29.39,West,267,26.0,32.0,48,0.00,,,1.24,VWS V14.01,2013-01-31 15:12:00,
2013-01-31 10:15:00,39.9,21.8,29.40,West,270,19.0,33.0,48,0.00,,,1.25,VWS V14.01,2013-01-31 15:15:00,
2013-01-31 10:17:00,39.9,21.8,29.40,West,279,28.0,28.0,48,0.00,,,1.24,VWS V14.01,2013-01-31 15:17:00,
2013-01-31 10:22:00,39.8,20.2,29.40,WNW,289,21.0,28.0,45,0.00,,,1.24,VWS V14.01,2013-01-31 15:22:00,
2013-01-31 10:26:00,39.7,20.1,29.40,West,279,26.0,32.0,45,0.00,,,1.24,VWS V14.01,2013-01-31 15:26:00,
2013-01-31 10:30:00,39.8,20.7,29.40,West,270,18.0,35.0,46,0.00,,,1.25,VWS V14.01,2013-01-31 15:30:00,
2013-01-31 10:31:00,39.8,20.2,29.40,West,259,20.0,26.0,45,0.00,,,1.24,VWS V14.01,2013-01-31 15:31:00,
2013-01-31 10:36:00,39.8,20.2,29.40,West,261,23.0,31.0,45,0.00,,,1.24,VWS V14.01,2013-01-31 15:36:00,
2013-01-31 10:41:00,39.9,20.3,29.40,WSW,257,12.0,31.0,45,0.00,,,1.24,VWS V14.01,2013-01-31 15:41:00,
2013-01-31 10:45:00,40.1,20.0,29.41,West,270,18.0,33.0,44,0.00,,,1.25,VWS V14.01,2013-01-31 15:45:00,
2013-01-31 10:46:00,40.1,20.0,29.41,North,355,12.0,19.0,44,0.00,,,1.24,VWS V14.01,2013-01-31 15:46:00,
2013-01-31 10:51:00,40.7,20.5,29.41,West,280,21.0,26.0,44,0.00,,,1.24,VWS V14.01,2013-01-31 15:51:00,
2013-01-31 10:56:00,40.7,19.4,29.41,WNW,290,20.0,38.0,42,0.00,,,1.24,VWS V14.01,2013-01-31 15:56:00,
2013-01-31 11:00:00,40.8,18.9,29.41,West,270,18.0,40.0,41,0.00,,,1.25,VWS V14.01,2013-01-31 16:00:00,
2013-01-31 11:01:00,40.8,18.9,29.41,WNW,284,22.0,22.0,41,0.00,,,1.24,VWS V14.01,2013-01-31 16:01:00,
2013-01-31 11:06:00,40.9,18.5,29.41,WSW,249,14.0,28.0,40,0.00,,,1.24,VWS V14.01,2013-01-31 16:06:00,
2013-01-31 11:11:00,40.8,18.9,29.41,WSW,257,14.0,28.0,41,0.00,,,1.24,VWS V14.01,2013-01-31 16:11:00,
2013-01-31 11:15:00,40.8,19.5,29.42,West,270,15.0,30.0,42,0.00,,,1.25,VWS V14.01,2013-01-31 16:15:00,
2013-01-31 11:16:00,40.8,20.0,29.42,WSW,239,8.0,19.0,43,0.00,,,1.24,VWS V14.01,2013-01-31 16:16:00,
2013-01-31 11:21:00,40.7,19.4,29.42,SW,232,18.0,31.0,42,0.00,,,1.24,VWS V14.01,2013-01-31 16:21:00,
2013-01-31 11:26:00,40.7,19.4,29.42,West,280,20.0,32.0,42,0.00,,,1.24,VWS V14.01,2013-01-31 16:26:00,
2013-01-31 11:30:00,41.1,19.8,29.42,West,270,16.0,32.0,42,0.00,,,1.25,VWS V14.01,2013-01-31 16:30:00,
2013-01-31 11:31:00,41.2,19.9,29.42,West,273,20.0,25.0,42,0.00,,,1.24,VWS V14.01,2013-01-31 16:31:00,
2013-01-31 11:36:00,41.1,19.8,29.42,WSW,254,18.0,31.0,42,0.00,,,1.24,VWS V14.01,2013-01-31 16:36:00,
2013-01-31 11:41:00,40.9,19.6,29.42,SW,232,6.0,33.0,42,0.00,,,1.24,VWS V14.01,2013-01-31 16:41:00,
2013-01-31 11:45:00,40.8,19.5,29.42,West,270,18.0,33.0,42,0.00,,,1.25,VWS V14.01,2013-01-31 16:45:00,
2013-01-31 11:46:00,40.8,19.5,29.42,WSW,250,13.0,15.0,42,0.00,,,1.24,VWS V14.01,2013-01-31 16:46:00,
2013-01-31 11:51:00,41.5,20.7,29.42,WNW,302,10.0,28.0,43,0.00,,,1.24,VWS V14.01,2013-01-31 16:51:00,
2013-01-31 11:56:00,41.9,20.5,29.42,West,277,21.0,28.0,42,0.00,,,1.24,VWS V14.01,2013-01-31 16:56:00,
2013-01-31 12:00:00,41.7,21.4,29.43,West,270,14.0,33.0,44,0.00,,,1.25,VWS V14.01,2013-01-31 17:00:00,
2013-01-31 12:01:00,41.7,20.9,29.43,West,261,12.0,20.0,43,0.00,,,1.24,VWS V14.01,2013-01-31 17:01:00,
2013-01-31 12:06:00,41.8,22.0,29.43,WSW,238,10.0,22.0,45,0.00,,,1.24,VWS V14.01,2013-01-31 17:06:00,
2013-01-31 12:11:00,41.9,22.1,29.43,West,259,11.0,27.0,45,0.00,,,1.24,VWS V14.01,2013-01-31 17:11:00,
2013-01-31 12:15:00,41.5,22.3,29.42,West,270,12.0,28.0,46,0.00,,,1.25,VWS V14.01,2013-01-31 17:15:00,
2013-01-31 12:16:00,41.5,22.3,29.42,West,274,26.0,26.0,46,0.00,,,1.24,VWS V14.01,2013-01-31 17:16:00,
2013-01-31 12:21:00,40.9,22.2,29.42,West,268,20.0,30.0,47,0.00,,,1.24,VWS V14.01,2013-01-31 17:21:00,
2013-01-31 12:26:00,40.5,22.9,29.42,WNW,292,18.0,30.0,49,0.00,,,1.24,VWS V14.01,2013-01-31 17:26:00,
2013-01-31 12:30:00,40.1,23.4,29.44,West,270,13.0,30.0,51,0.00,,,1.25,VWS V14.01,2013-01-31 17:30:00,
2013-01-31 12:31:00,39.9,23.3,29.44,West,263,23.0,25.0,51,0.00,,,1.24,VWS V14.01,2013-01-31 17:31:00,
2013-01-31 12:36:00,39.5,22.9,29.44,WNW,300,13.0,26.0,51,0.00,,,1.24,VWS V14.01,2013-01-31 17:36:00,
2013-01-31 12:41:00,39.7,22.1,29.44,West,275,12.0,27.0,49,0.00,,,1.24,VWS V14.01,2013-01-31 17:41:00,
2013-01-31 12:45:00,39.9,22.8,29.44,West,270,15.0,28.0,50,0.00,,,1.25,VWS V14.01,2013-01-31 17:45:00,
2013-01-31 12:46:00,39.9,23.3,29.44,West,268,23.0,23.0,51,0.00,,,1.24,VWS V14.01,2013-01-31 17:46:00,
2013-01-31 12:51:00,39.4,21.4,29.44,West,262,30.0,31.0,48,0.00,,,1.24,VWS V14.01,2013-01-31 17:51:00,
2013-01-31 12:56:00,39.4,20.4,29.44,West,263,21.0,31.0,46,0.00,,,1.24,VWS V14.01,2013-01-31 17:56:00,
2013-01-31 13:00:00,39.8,18.6,29.45,West,270,18.0,32.0,42,0.00,,,1.25,VWS V14.01,2013-01-31 18:00:00,
2013-01-31 13:01:00,39.9,18.7,29.45,WNW,286,26.0,28.0,42,0.00,,,1.24,VWS V14.01,2013-01-31 18:01:00,
2013-01-31 13:06:00,40.5,19.8,29.45,West,269,21.0,28.0,43,0.00,,,1.24,VWS V14.01,2013-01-31 18:06:00,
2013-01-31 13:11:00,40.4,20.2,29.45,West,259,27.0,35.0,44,0.00,,,1.24,VWS V14.01,2013-01-31 18:11:00,
2013-01-31 13:15:00,40.5,19.8,29.46,West,270,18.0,35.0,43,0.00,,,1.25,VWS V14.01,2013-01-31 18:15:00,
2013-01-31 13:16:00,40.4,20.2,29.46,West,270,13.0,24.0,44,0.00,,,1.24,VWS V14.01,2013-01-31 18:16:00,
2013-01-31 13:21:00,39.9,20.3,29.46,West,273,14.0,32.0,45,0.00,,,1.24,VWS V14.01,2013-01-31 18:21:00,
2013-01-31 13:26:00,39.4,19.3,29.46,WNW,298,22.0,32.0,44,0.00,,,1.24,VWS V14.01,2013-01-31 18:26:00,
2013-01-31 13:30:00,39.4,18.8,29.47,West,270,18.0,38.0,43,0.00,,,1.25,VWS V14.01,2013-01-31 18:30:00,
2013-01-31 13:31:00,39.5,18.9,29.47,West,279,23.0,23.0,43,0.00,,,1.24,VWS V14.01,2013-01-31 18:31:00,
2013-01-31 13:36:00,40.2,18.4,29.47,West,275,21.0,33.0,41,0.00,,,1.24,VWS V14.01,2013-01-31 18:36:00,
2013-01-31 13:41:00,39.9,17.5,29.47,WNW,286,11.0,33.0,40,0.00,,,1.24,VWS V14.01,2013-01-31 18:41:00,
2013-01-31 13:45:00,39.7,17.9,29.47,West,270,16.0,35.0,41,0.00,,,1.25,VWS V14.01,2013-01-31 18:45:00,
2013-01-31 13:46:00,39.5,17.8,29.47,West,267,16.0,21.0,41,0.00,,,1.24,VWS V14.01,2013-01-31 18:46:00,
2013-01-31 13:51:00,39.2,16.9,29.47,West,274,23.0,30.0,40,0.00,,,1.24,VWS V14.01,2013-01-31 18:51:00,
2013-01-31 13:56:00,39.4,16.5,29.47,West,277,16.0,30.0,39,0.00,,,1.24,VWS V14.01,2013-01-31 18:56:00,
2013-01-31 14:00:00,39.5,16.6,29.48,West,270,16.0,30.0,39,0.00,,,1.25,VWS V14.01,2013-01-31 19:00:00,
2013-01-31 14:01:00,39.7,17.4,29.48,West,281,13.0,22.0,40,0.00,,,1.24,VWS V14.01,2013-01-31 19:01:00,
2013-01-31 14:06:00,40.4,17.4,29.48,West,271,15.0,28.0,39,0.00,,,1.24,VWS V14.01,2013-01-31 19:06:00,
2013-01-31 14:11:00,40.4,18.6,29.48,West,263,11.0,28.0,41,0.00,,,1.24,VWS V14.01,2013-01-31 19:11:00,
2013-01-31 14:15:00,39.8,19.1,29.49,West,270,16.0,31.0,43,0.00,,,1.25,VWS V14.01,2013-01-31 19:15:00,
2013-01-31 14:16:00,39.7,18.5,29.49,West,267,18.0,25.0,42,0.00,,,1.24,VWS V14.01,2013-01-31 19:16:00,
2013-01-31 14:21:00,39.2,17.5,29.49,NW,305,13.0,33.0,41,0.00,,,1.24,VWS V14.01,2013-01-31 19:21:00,
2013-01-31 14:26:00,38.8,16.6,29.49,West,263,25.0,33.0,40,0.00,,,1.24,VWS V14.01,2013-01-31 19:26:00,
2013-01-31 14:30:00,38.6,16.4,29.50,West,270,17.0,33.0,40,0.00,,,1.25,VWS V14.01,2013-01-31 19:30:00,
2013-01-31 14:31:00,38.8,16.6,29.50,WNW,290,15.0,21.0,40,0.00,,,1.24,VWS V14.01,2013-01-31 19:31:00,
2013-01-31 14:36:00,38.9,17.2,29.50,West,280,7.0,22.0,41,0.00,,,1.24,VWS V14.01,2013-01-31 19:36:00,
2013-01-31 14:41:00,38.8,17.1,29.50,WNW,282,13.0,22.0,41,0.00,,,1.24,VWS V14.01,2013-01-31 19:41:00,
2013-01-31 14:45:00,38.5,16.3,29.51,West,270,13.0,23.0,40,0.00,,,1.25,VWS V14.01,2013-01-31 19:45:00,
2013-01-31 14:46:00,38.4,16.2,29.51,West,275,22.0,23.0,40,0.00,,,1.24,VWS V14.01,2013-01-31 19:46:00,
2013-01-31 14:51:00,38.2,14.8,29.51,West,270,27.0,30.0,38,0.00,,,1.24,VWS V14.01,2013-01-31 19:51:00,
2013-01-31 14:56:00,37.6,13.1,29.51,WNW,299,23.0,36.0,36,0.00,,,1.24,VWS V14.01,2013-01-31 19:56:00,
2013-01-31 15:00:00,37.4,14.1,29.52,West,270,19.0,36.0,38,0.00,,,1.25,VWS V14.01,2013-01-31 20:00:00,
2013-01-31 15:01:00,37.4,13.5,29.52,West,279,10.0,28.0,37,0.00,,,1.24,VWS V14.01,2013-01-31 20:01:00,
2013-01-31 15:06:00,37.2,13.9,29.52,SW,228,13.0,28.0,38,0.00,,,1.24,VWS V14.01,2013-01-31 20:06:00,
2013-01-31 15:11:00,37.2,12.7,29.52,SW,229,14.0,37.0,36,0.00,,,1.24,VWS V14.01,2013-01-31 20:11:00,
2013-01-31 15:15:00,37.4,13.5,29.53,West,270,18.0,37.0,37,0.00,,,1.25,VWS V14.01,2013-01-31 20:15:00,
2013-01-31 15:16:00,37.4,13.5,29.53,West,277,23.0,28.0,37,0.00,,,1.24,VWS V14.01,2013-01-31 20:16:00,
2013-01-31 15:21:00,37.6,13.7,29.53,WSW,257,18.0,28.0,37,0.00,,,1.24,VWS V14.01,2013-01-31 20:21:00,
2013-01-31 15:26:00,37.5,14.2,29.53,WNW,296,18.0,31.0,38,0.00,,,1.24,VWS V14.01,2013-01-31 20:26:00,
2013-01-31 15:30:00,37.6,14.3,29.55,West,270,18.0,35.0,38,0.00,,,1.25,VWS V14.01,2013-01-31 20:30:00,
2013-01-31 15:31:00,37.5,14.2,29.55,WNW,302,26.0,26.0,38,0.00,,,1.24,VWS V14.01,2013-01-31 20:31:00,
2013-01-31 15:36:00,37.1,15.0,29.55,WNW,282,18.0,28.0,40,0.00,,,1.24,VWS V14.01,2013-01-31 20:36:00,
2013-01-31 15:41:00,36.8,15.9,29.55,West,276,22.0,28.0,42,0.00,,,1.24,VWS V14.01,2013-01-31 20:41:00,
2013-01-31 15:45:00,36.8,15.3,29.56,West,270,16.0,32.0,41,0.00,,,1.25,VWS V14.01,2013-01-31 20:45:00,
2013-01-31 15:46:00,36.8,15.3,29.56,WSW,254,13.0,22.0,41,0.00,,,1.24,VWS V14.01,2013-01-31 20:46:00,
2013-01-31 15:51:00,36.8,15.3,29.56,WNW,284,12.0,32.0,41,0.00,,,1.24,VWS V14.01,2013-01-31 20:51:00,
2013-01-31 15:56:00,36.5,13.9,29.56,WSW,258,13.0,32.0,39,0.00,,,1.24,VWS V14.01,2013-01-31 20:56:00,
2013-01-31 16:00:00,36.1,13.6,29.57,West,270,14.0,32.0,39,0.00,,,1.25,VWS V14.01,2013-01-31 21:00:00,
2013-01-31 16:01:00,36.1,13.6,29.57,West,276,16.0,16.0,39,0.00,,,1.24,VWS V14.01,2013-01-31 21:01:00,
2013-01-31 16:06:00,35.6,13.7,29.57,WSW,255,6.0,23.0,40,0.00,,,1.24,VWS V14.01,2013-01-31 21:06:00,
2013-01-31 16:11:00,35.5,14.7,29.57,West,277,20.0,25.0,42,0.00,,,1.24,VWS V14.01,2013-01-31 21:11:00,
2013-01-31 16:15:00,35.2,16.0,29.59,West,270,13.0,29.0,45,0.00,,,1.25,VWS V14.01,2013-01-31 21:15:00,
2013-01-31 16:16:00,35.2,16.0,29.59,WSW,242,13.0,15.0,45,0.00,,,1.24,VWS V14.01,2013-01-31 21:16:00,
2013-01-31 16:21:00,35.0,17.3,29.59,WNW,284,20.0,32.0,48,0.00,,,1.24,VWS V14.01,2013-01-31 21:21:00,
2013-01-31 16:26:00,34.6,17.9,29.59,WSW,240,10.0,32.0,50,0.00,,,1.24,VWS V14.01,2013-01-31 21:26:00,
2013-01-31 16:30:00,34.3,18.5,29.59,West,270,16.0,32.0,52,0.00,,,1.25,VWS V14.01,2013-01-31 21:30:00,
2013-01-31 16:31:00,34.3,18.5,29.59,WSW,254,10.0,19.0,52,0.00,,,1.24,VWS V14.01,2013-01-31 21:31:00,
2013-01-31 16:36:00,33.7,19.3,29.59,NW,305,20.0,25.0,55,0.00,,,1.24,VWS V14.01,2013-01-31 21:36:00,
2013-01-31 16:41:00,33.3,19.7,29.59,West,261,11.0,30.0,57,0.00,,,1.24,VWS V14.01,2013-01-31 21:41:00,
2013-01-31 16:45:00,33.1,19.1,29.61,West,270,14.0,32.0,56,0.00,,,1.25,VWS V14.01,2013-01-31 21:45:00,
2013-01-31 16:46:00,33.1,19.1,29.61,West,262,11.0,14.0,56,0.00,,,1.24,VWS V14.01,2013-01-31 21:46:00,
2013-01-31 16:51:00,32.8,17.6,29.61,West,269,28.0,31.0,53,0.00,,,1.24,VWS V14.01,2013-01-31 21:51:00,
2013-01-31 16:56:00,32.8,17.6,29.61,West,268,28.0,31.0,53,0.00,,,1.24,VWS V14.01,2013-01-31 21:56:00,
2013-01-31 17:00:00,32.7,15.2,29.62,West,270,17.0,31.0,48,0.00,,,1.25,VWS V14.01,2013-01-31 22:00:00,
2013-01-31 17:01:00,32.7,15.2,29.62,West,273,12.0,20.0,48,0.00,,,1.24,VWS V14.01,2013-01-31 22:01:00,
2013-01-31 17:06:00,32.7,14.2,29.62,West,281,14.0,26.0,46,0.00,,,1.24,VWS V14.01,2013-01-31 22:06:00,
2013-01-31 17:11:00,32.5,14.0,29.62,WNW,298,19.0,26.0,46,0.00,,,1.24,VWS V14.01,2013-01-31 22:11:00,
2013-01-31 17:15:00,32.5,14.0,29.64,West,270,13.0,29.0,46,0.00,,,1.25,VWS V14.01,2013-01-31 22:15:00,
2013-01-31 17:16:00,32.5,14.0,29.64,West,276,24.0,24.0,46,0.00,,,1.24,VWS V14.01,2013-01-31 22:16:00,
2013-01-31 17:20:00,32.4,12.4,29.64,West,277,13.0,25.0,43,0.00,,,1.24,VWS V14.01,2013-01-31 22:20:00,
2013-01-31 17:25:00,32.4,11.3,29.64,NW,320,16.0,28.0,41,0.00,,,1.24,VWS V14.01,2013-01-31 22:25:00,
2013-01-31 17:30:00,32.2,11.7,29.65,West,277,13.0,13.0,42,0.00,,,1.24,VWS V14.01,2013-01-31 22:30:00,
2013-01-31 17:35:00,32.2,11.7,29.65,WSW,247,13.0,25.0,42,0.00,,,1.24,VWS V14.01,2013-01-31 22:35:00,
2013-01-31 17:40:00,32.2,11.7,29.65,West,266,10.0,25.0,42,0.00,,,1.24,VWS V14.01,2013-01-31 22:40:00,
2013-01-31 17:45:00,32.1,12.1,29.65,West,268,8.0,8.0,43,0.00,,,1.24,VWS V14.01,2013-01-31 22:45:00,
2013-01-31 17:50:00,32.1,12.1,29.65,WNW,286,9.0,20.0,43,0.00,,,1.24,VWS V14.01,2013-01-31 22:50:00,
2013-01-31 17:55:00,31.9,13.0,29.65,West,277,9.0,20.0,45,0.00,,,1.24,VWS V14.01,2013-01-31 22:55:00,
2013-01-31 18:00:00,31.8,13.9,29.67,West,273,5.0,6.0,47,0.00,,,1.24,VWS V14.01,2013-01-31 23:00:00,
2013-01-31 18:05:00,31.8,13.9,29.67,West,269,13.0,19.0,47,0.00,,,1.24,VWS V14.01,2013-01-31 23:05:00,
2013-01-31 18:10:00,31.6,14.2,29.67,West,269,5.0,22.0,48,0.00,,,1.24,VWS V14.01,2013-01-31 23:10:00,
2013-01-31 18:15:00,31.6,14.2,29.67,WSW,252,10.0,22.0,48,0.00,,,1.24,VWS V14.01,2013-01-31 23:15:00,
2013-01-31 18:20:00,31.5,14.1,29.67,WSW,246,8.0,21.0,48,0.00,,,1.24,VWS V14.01,2013-01-31 23:20:00,
2013-01-31 18:25:00,31.5,14.6,29.67,WSW,240,7.0,29.0,49,0.00,,,1.24,VWS V14.01,2013-01-31 23:25:00,
2013-01-31 18:30:00,31.3,14.8,29.68,West,263,11.0,29.0,50,0.00,,,1.24,VWS V14.01,2013-01-31 23:30:00,
2013-01-31 18:35:00,31.3,15.3,29.68,West,264,13.0,15.0,51,0.00,,,1.24,VWS V14.01,2013-01-31 23:35:00,
2013-01-31 18:40:00,31.2,15.6,29.68,West,271,9.0,21.0,52,0.00,,,1.24,VWS V14.01,2013-01-31 23:40:00,
2013-01-31 18:45:00,31.0,15.9,29.69,SW,235,13.0,22.0,53,0.00,,,1.24,VWS V14.01,2013-01-31 23:45:00,
2013-01-31 18:50:00,30.9,15.8,29.69,WSW,241,10.0,21.0,53,0.00,,,1.24,VWS V14.01,2013-01-31 23:50:00,
2013-01-31 18:55:00,30.7,16.0,29.69,West,261,6.0,21.0,54,0.00,,,1.24,VWS V14.01,2013-01-31 23:55:00,
2013-01-31 19:00:00,30.6,16.8,29.70,West,261,13.0,21.0,56,0.00,,,1.24,VWS V14.01,2013-02-01 00:00:00,
2013-01-31 19:05:00,30.4,16.6,29.70,West,271,11.0,20.0,56,0.00,,,1.24,VWS V14.01,2013-02-01 00:05:00,
2013-01-31 19:10:00,30.4,16.6,29.70,WSW,256,15.0,20.0,56,0.00,,,1.24,VWS V14.01,2013-02-01 00:10:00,
2013-01-31 19:15:00,30.4,17.0,29.70,SW,235,10.0,25.0,57,0.00,,,1.24,VWS V14.01,2013-02-01 00:15:00,
2013-01-31 19:20:00,30.3,16.9,29.70,SW,236,9.0,22.0,57,0.00,,,1.24,VWS V14.01,2013-02-01 00:20:00,
2013-01-31 19:25:00,30.1,17.1,29.70,WSW,238,25.0,25.0,58,0.00,,,1.24,VWS V14.01,2013-02-01 00:25:00,
2013-01-31 19:30:00,30.0,16.6,29.71,WNW,288,21.0,26.0,57,0.00,,,1.24,VWS V14.01,2013-02-01 00:30:00,
2013-01-31 19:35:00,29.9,16.9,29.71,WSW,253,15.0,20.0,58,0.00,,,1.24,VWS V14.01,2013-02-01 00:35:00,
2013-01-31 19:40:00,29.7,17.1,29.71,West,261,13.0,20.0,59,0.00,,,1.24,VWS V14.01,2013-02-01 00:40:00,
2013-01-31 19:45:00,29.7,16.8,29.72,West,274,18.0,30.0,58,0.00,,,1.24,VWS V14.01,2013-02-01 00:45:00,
2013-01-31 19:50:00,29.6,16.2,29.72,West,280,11.0,22.0,57,0.00,,,1.24,VWS V14.01,2013-02-01 00:50:00,
2013-01-31 19:55:00,29.4,16.5,29.72,West,271,14.0,22.0,58,0.00,,,1.24,VWS V14.01,2013-02-01 00:55:00,
2013-01-31 20:00:00,29.4,15.7,29.73,WNW,289,19.0,22.0,56,0.00,,,1.24,VWS V14.01,2013-02-01 01:00:00,
2013-01-31 20:05:00,29.4,14.4,29.73,WSW,248,10.0,18.0,53,0.00,,,1.24,VWS V14.01,2013-02-01 01:05:00,
2013-01-31 20:10:00,29.4,12.1,29.73,West,269,24.0,30.0,48,0.00,,,1.24,VWS V14.01,2013-02-01 01:10:00,
2013-01-31 20:15:00,29.3,12.1,29.73,WNW,282,9.0,30.0,48,0.00,,,1.24,VWS V14.01,2013-02-01 01:15:00,
2013-01-31 20:20:00,29.3,11.6,29.73,WSW,240,10.0,24.0,47,0.00,,,1.24,VWS V14.01,2013-02-01 01:20:00,
2013-01-31 20:25:00,29.1,11.4,29.73,West,259,18.0,30.0,47,0.00,,,1.24,VWS V14.01,2013-02-01 01:25:00,
2013-01-31 20:30:00,29.1,11.4,29.74,West,269,16.0,30.0,47,0.00,,,1.24,VWS V14.01,2013-02-01 01:30:00,
2013-01-31 20:35:00,29.0,10.8,29.74,SW,230,15.0,25.0,46,0.00,,,1.24,VWS V14.01,2013-02-01 01:35:00,
2013-01-31 20:40:00,28.8,11.1,29.74,WNW,284,15.0,25.0,47,0.00,,,1.24,VWS V14.01,2013-02-01 01:40:00,
2013-01-31 20:45:00,28.7,11.0,29.74,West,273,11.0,25.0,47,0.00,,,1.24,VWS V14.01,2013-02-01 01:45:00,
2013-01-31 20:50:00,28.7,11.0,29.74,West,262,8.0,19.0,47,0.00,,,1.24,VWS V14.01,2013-02-01 01:50:00,
2013-01-31 20:55:00,28.5,10.9,29.74,West,266,14.0,21.0,47,0.00,,,1.24,VWS V14.01,2013-02-01 01:55:00,
2013-01-31 21:00:00,28.4,10.3,29.74,West,259,12.0,21.0,46,0.00,,,1.24,VWS V14.01,2013-02-01 02:00:00,
2013-01-31 21:05:00,28.4,10.8,29.74,West,281,22.0,22.0,47,0.00,,,1.24,VWS V14.01,2013-02-01 02:05:00,
2013-01-31 21:10:00,28.2,11.0,29.74,West,265,13.0,24.0,48,0.00,,,1.24,VWS V14.01,2013-02-01 02:10:00,
2013-01-31 21:15:00,28.2,10.6,29.75,WNW,299,10.0,24.0,47,0.00,,,1.24,VWS V14.01,2013-02-01 02:15:00,
2013-01-31 21:20:00,28.1,10.0,29.75,West,277,8.0,23.0,46,0.00,,,1.24,VWS V14.01,2013-02-01 02:20:00,
2013-01-31 21:25:00,28.1,10.5,29.75,WNW,296,9.0,23.0,47,0.00,,,1.24,VWS V14.01,2013-02-01 02:25:00,
2013-01-31 21:30:00,27.9,10.3,29.76,NNW,337,11.0,23.0,47,0.00,,,1.24,VWS V14.01,2013-02-01 02:30:00,
2013-01-31 21:35:00,27.9,9.8,29.76,WSW,250,18.0,22.0,46,0.00,,,1.24,VWS V14.01,2013-02-01 02:35:00,
2013-01-31 21:40:00,27.9,9.8,29.76,SSW,203,13.0,22.0,46,0.00,,,1.24,VWS V14.01,2013-02-01 02:40:00,
2013-01-31 21:45:00,27.9,9.8,29.77,West,275,8.0,22.0,46,0.00,,,1.24,VWS V14.01,2013-02-01 02:45:00,
2013-01-31 21:50:00,27.8,10.2,29.77,West,268,7.0,14.0,47,0.00,,,1.24,VWS V14.01,2013-02-01 02:50:00,
2013-01-31 21:55:00,27.6,10.5,29.77,WNW,282,13.0,21.0,48,0.00,,,1.24,VWS V14.01,2013-02-01 02:55:00,
2013-01-31 22:00:00,27.6,9.5,29.77,West,271,5.0,21.0,46,0.00,,,1.24,VWS V14.01,2013-02-01 03:00:00,
2013-01-31 22:05:00,27.6,9.1,29.77,West,269,23.0,23.0,45,0.00,,,1.24,VWS V14.01,2013-02-01 03:05:00,
2013-01-31 22:10:00,27.8,8.2,29.77,West,271,16.0,24.0,43,0.00,,,1.24,VWS V14.01,2013-02-01 03:10:00,
2013-01-31 22:15:00,27.8,8.2,29.77,West,261,20.0,24.0,43,0.00,,,1.24,VWS V14.01,2013-02-01 03:15:00,
2013-01-31 22:20:00,27.9,7.8,29.77,WSW,250,8.0,30.0,42,0.00,,,1.24,VWS V14.01,2013-02-01 03:20:00,
2013-01-31 22:25:00,27.8,7.7,29.77,WNW,290,6.0,30.0,42,0.00,,,1.24,VWS V14.01,2013-02-01 03:25:00,
2013-01-31 22:30:00,27.8,7.7,29.77,WSW,243,7.0,30.0,42,0.00,,,1.24,VWS V14.01,2013-02-01 03:30:00,
2013-01-31 22:35:00,27.6,8.0,29.77,WNW,297,13.0,23.0,43,0.00,,,1.24,VWS V14.01,2013-02-01 03:35:00,
2013-01-31 22:40:00,27.6,8.6,29.77,WSW,238,8.0,23.0,44,0.00,,,1.24,VWS V14.01,2013-02-01 03:40:00,
2013-01-31 22:45:00,27.5,8.5,29.77,West,271,8.0,23.0,44,0.00,,,1.24,VWS V14.01,2013-02-01 03:45:00,
2013-01-31 22:50:00,27.5,9.0,29.77,West,265,12.0,21.0,45,0.00,,,1.24,VWS V14.01,2013-02-01 03:50:00,
2013-01-31 22:55:00,27.3,9.3,29.77,West,279,9.0,23.0,46,0.00,,,1.24,VWS V14.01,2013-02-01 03:55:00,
2013-01-31 23:00:00,27.5,9.0,29.78,NW,317,14.0,23.0,45,0.00,,,1.24,VWS V14.01,2013-02-01 04:00:00,
2013-01-31 23:05:00,27.3,9.3,29.78,West,262,5.0,11.0,46,0.00,,,1.24,VWS V14.01,2013-02-01 04:05:00,
2013-01-31 23:10:00,27.3,9.3,29.78,West,272,11.0,19.0,46,0.00,,,1.24,VWS V14.01,2013-02-01 04:10:00,
2013-01-31 23:15:00,27.3,9.3,29.78,SW,236,9.0,19.0,46,0.00,,,1.24,VWS V14.01,2013-02-01 04:15:00,
2013-01-31 23:20:00,27.3,9.7,29.78,West,263,13.0,15.0,47,0.00,,,1.24,VWS V14.01,2013-02-01 04:20:00,
2013-01-31 23:25:00,27.3,9.7,29.78,WNW,296,10.0,20.0,47,0.00,,,1.24,VWS V14.01,2013-02-01 04:25:00,
2013-01-31 23:30:00,27.2,10.1,29.78,West,280,9.0,20.0,48,0.00,,,1.24,VWS V14.01,2013-02-01 04:30:00,
2013-01-31 23:35:00,27.2,10.6,29.78,West,272,8.0,14.0,49,0.00,,,1.24,VWS V14.01,2013-02-01 04:35:00,
2013-01-31 23:40:00,27.0,10.4,29.78,West,277,11.0,20.0,49,0.00,,,1.24,VWS V14.01,2013-02-01 04:40:00,
2013-01-31 23:45:00,27.0,10.4,29.78,West,275,9.0,20.0,49,0.00,,,1.24,VWS V14.01,2013-02-01 04:45:00,
2013-01-31 23:50:00,26.9,10.3,29.78,WSW,253,8.0,14.0,49,0.00,,,1.24,VWS V14.01,2013-02-01 04:50:00,
2013-01-31 23:55:00,26.9,10.3,29.78,WSW,252,7.0,14.0,49,0.00,,,1.24,VWS V14.01,2013-02-01 04:55:00,